createdAt,value
2022-10-17T00:02:14.332Z,6.32
2022-10-17T00:04:40.900Z,6.97
2022-10-17T00:07:07.304Z,6.30
2022-10-17T00:09:33.768Z,6.50
2022-10-17T00:12:00.387Z,7.45
2022-10-17T00:14:26.796Z,6.53
2022-10-17T00:16:53.338Z,7.25
2022-10-17T00:19:19.850Z,6.57
2022-10-17T00:21:46.377Z,6.25
2022-10-17T00:24:12.897Z,7.13
2022-10-17T00:26:40.467Z,6.80
2022-10-17T00:29:06.886Z,7.03
2022-10-17T00:31:33.409Z,7.25
2022-10-17T00:33:59.733Z,7.20
2022-10-17T00:36:26.603Z,6.80
2022-10-17T00:38:55.946Z,7.40
2022-10-17T00:41:25.307Z,6.25
2022-10-17T00:43:56.197Z,7.10
2022-10-17T00:46:25.629Z,6.50
2022-10-17T00:48:54.615Z,6.97
2022-10-17T00:51:27.775Z,6.53
2022-10-17T00:53:54.217Z,6.63
2022-10-17T00:56:21.337Z,6.82
2022-10-17T00:58:47.984Z,7.05
2022-10-17T01:01:14.655Z,6.80
2022-10-17T01:03:41.191Z,7.70
2022-10-17T01:06:07.525Z,6.40
2022-10-17T01:08:34.176Z,7.10
2022-10-17T01:11:17.483Z,6.75
2022-10-17T01:13:54.396Z,6.50
2022-10-17T01:16:43.504Z,7.03
2022-10-17T01:19:42.473Z,6.78
2022-10-17T01:22:33.531Z,6.55
2022-10-17T01:25:10.657Z,6.47
2022-10-17T01:28:00.855Z,17.60
2022-10-17T01:30:56.101Z,6.90
2022-10-17T01:33:41.348Z,9.65
2022-10-17T01:36:45.156Z,6.88
2022-10-17T01:39:38.395Z,6.55
2022-10-17T01:42:17.858Z,6.57
2022-10-17T01:44:54.060Z,7.82
2022-10-17T01:47:25.482Z,6.45
2022-10-17T01:49:54.751Z,6.90
2022-10-17T01:52:30.046Z,6.70
2022-10-17T01:55:19.329Z,5.88
2022-10-17T01:57:56.052Z,6.60
2022-10-17T02:00:26.137Z,7.25
2022-10-17T02:02:59.226Z,8.20
2022-10-17T02:05:31.822Z,6.40
2022-10-17T02:07:58.246Z,6.63
2022-10-17T02:10:54.979Z,6.32
2022-10-17T02:13:37.347Z,6.78
2022-10-17T02:16:06.462Z,6.22
2022-10-17T02:18:54.547Z,6.40
2022-10-17T02:21:33.331Z,6.90
2022-10-17T02:24:21.500Z,6.13
2022-10-17T02:26:59.887Z,7.03
2022-10-17T02:29:32.770Z,6.43
2022-10-17T02:32:04.902Z,6.53
2022-10-17T02:34:50.681Z,6.60
2022-10-17T02:37:21.770Z,6.35
2022-10-17T02:39:50.347Z,6.97
2022-10-17T02:42:17.996Z,7.85
2022-10-17T02:44:45.785Z,6.10
2022-10-17T02:47:43.107Z,6.70
2022-10-17T02:50:10.308Z,6.70
2022-10-17T02:52:52.323Z,6.32
2022-10-17T02:55:24.092Z,6.93
2022-10-17T02:57:54.126Z,6.67
2022-10-17T03:00:22.479Z,6.50
2022-10-17T03:02:51.502Z,6.70
2022-10-17T03:05:23.981Z,8.50
2022-10-17T03:07:50.532Z,5.68
2022-10-17T03:10:17.900Z,7.00
2022-10-17T03:12:44.668Z,7.40
2022-10-17T03:15:12.072Z,7.03
2022-10-17T03:17:38.960Z,7.10
2022-10-17T03:20:06.841Z,6.75
2022-10-17T03:22:33.540Z,6.15
2022-10-17T03:24:59.882Z,6.90
2022-10-17T03:27:26.588Z,6.40
2022-10-17T03:29:53.133Z,7.57
2022-10-17T03:32:19.488Z,6.70
2022-10-17T03:34:45.795Z,6.55
2022-10-17T03:37:12.091Z,9.45
2022-10-17T03:39:38.445Z,6.97
2022-10-17T03:42:04.786Z,6.97
2022-10-17T03:44:31.108Z,6.43
2022-10-17T03:46:57.870Z,6.40
2022-10-17T03:49:24.253Z,6.85
2022-10-17T03:51:50.569Z,6.90
2022-10-17T03:54:16.925Z,6.70
2022-10-17T03:56:43.842Z,11.95
2022-10-17T03:59:14.124Z,6.97
2022-10-17T04:01:40.962Z,6.65
2022-10-17T04:04:07.460Z,6.60
2022-10-17T04:06:33.896Z,6.05
2022-10-17T04:09:00.413Z,7.10
2022-10-17T04:11:26.737Z,8.23
2022-10-17T04:13:55.098Z,6.45
2022-10-17T04:16:22.292Z,6.93
2022-10-17T04:18:53.290Z,6.50
2022-10-17T04:21:19.741Z,6.68
2022-10-17T04:23:46.114Z,7.53
2022-10-17T04:26:12.497Z,6.72
2022-10-17T04:31:13.074Z,6.15
2022-10-17T04:33:39.848Z,6.78
2022-10-17T04:36:10.192Z,6.85
2022-10-17T04:38:36.716Z,6.93
2022-10-17T04:41:06.686Z,7.35
2022-10-17T04:43:35.777Z,6.88
2022-10-17T04:46:04.751Z,6.30
2022-10-17T04:48:31.569Z,7.65
2022-10-17T04:51:03.548Z,5.88
2022-10-17T04:53:35.201Z,6.90
2022-10-17T04:56:02.078Z,6.45
2022-10-17T04:58:29.949Z,6.72
2022-10-17T05:00:56.569Z,6.88
2022-10-17T05:03:22.896Z,6.38
2022-10-17T05:05:49.227Z,6.55
2022-10-17T05:08:15.863Z,6.65
2022-10-17T05:10:44.420Z,6.18
2022-10-17T05:13:11.720Z,6.60
2022-10-17T05:15:38.186Z,6.60
2022-10-17T05:18:06.079Z,7.00
2022-10-17T05:20:33.258Z,7.22
2022-10-17T05:23:00.124Z,6.82
2022-10-17T05:25:26.430Z,7.63
2022-10-17T05:27:53.793Z,6.97
2022-10-17T05:30:20.218Z,6.85
2022-10-17T05:32:46.582Z,6.68
2022-10-17T05:35:13.046Z,8.55
2022-10-17T05:37:39.396Z,6.78
2022-10-17T05:40:06.201Z,7.57
2022-10-17T05:42:33.141Z,7.15
2022-10-17T05:44:59.673Z,11.07
2022-10-17T05:47:26.040Z,7.50
2022-10-17T05:49:52.757Z,8.18
2022-10-17T05:52:19.279Z,7.78
2022-10-17T05:54:45.839Z,7.10
2022-10-17T05:57:12.148Z,6.70
2022-10-17T05:59:38.509Z,6.55
2022-10-17T06:02:04.915Z,7.15
2022-10-17T06:04:31.356Z,6.35
2022-10-17T06:06:57.789Z,6.68
2022-10-17T06:09:24.435Z,6.55
2022-10-17T06:11:50.840Z,7.20
2022-10-17T06:14:17.393Z,7.07
2022-10-17T06:16:43.766Z,7.28
2022-10-17T06:19:11.460Z,9.23
2022-10-17T06:21:38.806Z,6.97
2022-10-17T06:24:05.419Z,6.32
2022-10-17T06:26:31.839Z,6.40
2022-10-17T06:28:58.270Z,7.07
2022-10-17T06:31:24.701Z,6.60
2022-10-17T06:33:51.218Z,7.30
2022-10-17T06:36:17.711Z,6.95
2022-10-17T06:38:44.032Z,6.97
2022-10-17T06:41:14.384Z,7.53
2022-10-17T06:43:43.390Z,7.47
2022-10-17T06:46:09.711Z,7.05
2022-10-17T06:48:36.161Z,6.95
2022-10-17T06:51:04.559Z,6.50
2022-10-17T06:53:32.902Z,7.05
2022-10-17T06:56:03.029Z,6.70
2022-10-17T06:58:34.351Z,7.38
2022-10-17T07:03:41.154Z,6.82
2022-10-17T07:06:10.740Z,8.23
2022-10-17T07:08:37.492Z,7.45
2022-10-17T07:11:15.740Z,6.93
2022-10-17T07:13:42.794Z,7.20
2022-10-17T07:16:09.810Z,6.57
2022-10-17T07:18:36.270Z,6.72
2022-10-17T07:21:03.909Z,7.47
2022-10-17T07:23:30.605Z,10.77
2022-10-17T07:26:02.262Z,6.80
2022-10-17T07:28:29.115Z,9.50
2022-10-17T07:30:55.488Z,6.82
2022-10-17T07:33:21.887Z,6.53
2022-10-17T07:35:48.349Z,7.07
2022-10-17T07:38:14.662Z,6.80
2022-10-17T07:40:40.991Z,6.63
2022-10-17T07:43:07.339Z,6.18
2022-10-17T07:45:33.642Z,6.60
2022-10-17T07:48:00.011Z,6.50
2022-10-17T07:50:26.384Z,6.65
2022-10-17T07:52:52.741Z,7.05
2022-10-17T07:55:19.095Z,6.65
2022-10-17T07:57:45.462Z,10.45
2022-10-17T08:00:12.094Z,6.97
2022-10-17T08:02:38.501Z,6.90
2022-10-17T08:05:05.226Z,6.50
2022-10-17T08:07:31.593Z,6.45
2022-10-17T08:09:58.057Z,6.30
2022-10-17T08:12:25.859Z,6.72
2022-10-17T08:14:52.201Z,6.30
2022-10-17T08:17:18.511Z,7.18
2022-10-17T08:19:44.830Z,6.20
2022-10-17T08:22:11.342Z,6.25
2022-10-17T08:24:37.876Z,6.93
2022-10-17T08:27:11.099Z,6.38
2022-10-17T08:29:38.451Z,6.93
2022-10-17T08:32:07.666Z,6.75
2022-10-17T08:34:35.349Z,7.13
2022-10-17T08:37:01.725Z,6.78
2022-10-17T08:39:28.175Z,6.35
2022-10-17T08:41:54.482Z,6.82
2022-10-17T08:44:46.142Z,6.90
2022-10-17T08:47:29.095Z,6.45
2022-10-17T08:50:03.240Z,7.65
2022-10-17T08:52:39.111Z,6.55
2022-10-17T08:57:49.503Z,6.53
2022-10-17T09:00:21.492Z,6.50
2022-10-17T09:03:06.177Z,6.20
2022-10-17T09:05:49.235Z,6.38
2022-10-17T09:08:35.777Z,6.70
2022-10-17T09:11:25.289Z,6.63
2022-10-17T09:14:20.710Z,6.63
2022-10-17T09:17:04.679Z,6.55
2022-10-17T09:19:36.623Z,6.63
2022-10-17T09:22:09.461Z,6.95
2022-10-17T09:24:38.880Z,6.75
2022-10-17T09:27:11.523Z,7.03
2022-10-17T09:32:19.684Z,6.45
2022-10-17T09:34:46.104Z,6.55
2022-10-17T09:37:17.143Z,6.72
2022-10-17T09:39:44.606Z,6.70
2022-10-17T09:42:18.598Z,7.18
2022-10-17T09:44:56.084Z,7.82
2022-10-17T09:47:41.281Z,7.00
2022-10-17T09:50:28.561Z,6.45
2022-10-17T09:52:59.274Z,6.82
2022-10-17T09:55:36.727Z,6.75
2022-10-17T09:58:05.559Z,7.18
2022-10-17T10:00:38.593Z,6.78
2022-10-17T10:03:22.786Z,6.70
2022-10-17T10:06:15.358Z,6.72
2022-10-17T10:09:04.900Z,6.72
2022-10-17T10:11:54.596Z,8.38
2022-10-17T10:14:36.124Z,6.70
2022-10-17T10:17:05.147Z,8.00
2022-10-17T10:19:38.693Z,6.95
2022-10-17T10:22:17.108Z,6.75
2022-10-17T10:24:43.427Z,6.75
2022-10-17T10:27:15.279Z,7.15
2022-10-17T10:29:48.144Z,6.53
2022-10-17T10:35:19.323Z,6.70
2022-10-17T10:37:51.906Z,6.50
2022-10-17T10:42:50.402Z,6.30
2022-10-17T10:48:51.816Z,6.28
2022-10-17T10:51:24.459Z,7.18
2022-10-17T10:56:48.796Z,6.95
2022-10-17T10:59:25.248Z,6.68
2022-10-17T11:01:57.663Z,6.75
2022-10-17T11:04:36.136Z,6.68
2022-10-17T11:07:27.287Z,10.85
2022-10-17T11:09:56.597Z,6.45
2022-10-17T11:12:28.954Z,6.75
2022-10-17T11:15:22.294Z,6.97
2022-10-17T11:17:57.274Z,5.93
2022-10-17T11:20:32.828Z,6.78
2022-10-17T11:23:10.990Z,6.63
2022-10-17T11:25:39.505Z,6.63
2022-10-17T11:28:17.729Z,7.32
2022-10-17T11:30:52.374Z,7.07
2022-10-17T11:33:27.780Z,6.78
2022-10-17T11:35:59.532Z,7.13
2022-10-17T11:38:46.717Z,6.90
2022-10-17T11:41:24.194Z,6.68
2022-10-17T11:44:03.940Z,6.60
2022-10-17T11:46:34.114Z,7.30
2022-10-17T11:49:20.088Z,6.57
2022-10-17T11:52:01.125Z,6.22
2022-10-17T11:55:10.883Z,6.88
2022-10-17T11:57:48.792Z,7.30
2022-10-17T12:00:31.292Z,7.35
2022-10-17T12:02:59.511Z,6.65
2022-10-17T12:05:37.377Z,7.05
2022-10-17T12:08:08.034Z,7.30
2022-10-17T12:10:46.469Z,7.75
2022-10-17T12:13:52.632Z,6.50
2022-10-17T12:16:21.793Z,6.82
2022-10-17T12:18:52.824Z,6.65
2022-10-17T12:21:19.470Z,6.80
2022-10-17T12:23:55.770Z,6.47
2022-10-17T12:26:40.350Z,6.82
2022-10-17T12:29:29.852Z,6.95
2022-10-17T12:32:11.792Z,6.65
2022-10-17T12:34:38.897Z,6.80
2022-10-17T12:37:05.414Z,6.32
2022-10-17T12:39:34.623Z,6.78
2022-10-17T12:42:00.973Z,6.53
2022-10-17T12:44:28.763Z,6.18
2022-10-17T12:47:29.201Z,6.57
2022-10-17T12:49:56.772Z,6.50
2022-10-17T12:52:32.238Z,6.97
2022-10-17T12:55:13.944Z,7.28
2022-10-17T12:58:02.308Z,6.30
2022-10-17T13:00:59.499Z,7.03
2022-10-17T13:03:33.488Z,6.85
2022-10-17T13:06:06.243Z,6.70
2022-10-17T13:08:43.173Z,6.57
2022-10-17T13:11:16.014Z,6.28
2022-10-17T13:13:56.142Z,6.70
2022-10-17T13:16:51.583Z,6.78
2022-10-17T13:19:23.776Z,6.15
2022-10-17T13:22:06.340Z,6.07
2022-10-17T13:27:30.203Z,6.47
2022-10-17T13:29:58.609Z,6.32
2022-10-17T13:32:27.724Z,6.55
2022-10-17T13:35:13.720Z,5.90
2022-10-17T13:37:54.221Z,9.50
2022-10-17T13:40:49.686Z,6.25
2022-10-17T13:43:20.538Z,6.20
2022-10-17T13:45:53.909Z,6.70
2022-10-17T13:48:30.882Z,6.97
2022-10-17T13:51:03.416Z,6.28
2022-10-17T13:53:41.566Z,6.30
2022-10-17T13:56:29.564Z,6.93
2022-10-17T13:59:07.984Z,5.97
2022-10-17T14:01:34.723Z,6.40
2022-10-17T14:04:09.664Z,6.60
2022-10-17T14:06:49.573Z,6.47
2022-10-17T14:09:25.310Z,6.38
2022-10-17T14:12:02.971Z,6.88
2022-10-17T14:14:30.434Z,6.18
2022-10-17T14:17:14.983Z,6.40
2022-10-17T14:19:41.336Z,5.80
2022-10-17T14:22:23.068Z,6.28
2022-10-17T14:24:52.029Z,5.50
2022-10-17T14:27:36.658Z,5.90
2022-10-17T14:30:09.711Z,6.07
2022-10-17T14:32:37.697Z,6.15
2022-10-17T14:35:30.213Z,5.80
2022-10-17T14:37:57.878Z,6.30
2022-10-17T14:40:27.427Z,5.40
2022-10-17T14:42:59.606Z,6.72
2022-10-17T14:45:32.997Z,5.53
2022-10-17T14:48:06.435Z,6.00
2022-10-17T14:50:33.473Z,9.00
2022-10-17T14:53:07.153Z,6.00
2022-10-17T14:55:55.042Z,5.90
2022-10-17T14:58:32.915Z,5.70
2022-10-17T15:01:01.249Z,5.63
2022-10-17T15:03:27.938Z,5.20
2022-10-17T15:05:55.170Z,5.95
2022-10-17T15:08:23.941Z,10.23
2022-10-17T15:10:51.308Z,5.57
2022-10-17T15:13:28.845Z,6.15
2022-10-17T15:15:58.836Z,6.03
2022-10-17T15:18:25.116Z,5.85
2022-10-17T15:20:59.598Z,5.90
2022-10-17T15:23:31.548Z,5.97
2022-10-17T15:26:06.513Z,6.57
2022-10-17T15:28:35.294Z,5.90
2022-10-17T15:31:01.640Z,6.57
2022-10-17T15:33:35.766Z,7.15
2022-10-17T15:36:05.472Z,9.35
2022-10-17T15:38:31.786Z,6.25
2022-10-17T15:41:00.498Z,5.82
2022-10-17T15:43:29.749Z,6.72
2022-10-17T15:45:56.362Z,6.13
2022-10-17T15:48:31.554Z,6.47
2022-10-17T15:50:57.855Z,6.03
2022-10-17T15:53:27.020Z,6.82
2022-10-17T15:55:56.465Z,5.88
2022-10-17T15:58:22.873Z,6.13
2022-10-17T16:00:51.176Z,5.97
2022-10-17T16:03:17.717Z,6.65
2022-10-17T16:05:44.105Z,7.88
2022-10-17T16:08:13.089Z,6.57
2022-10-17T16:10:40.547Z,6.30
2022-10-17T16:13:12.213Z,6.47
2022-10-17T16:15:41.987Z,6.43
2022-10-17T16:18:10.068Z,6.55
2022-10-17T16:20:38.213Z,6.43
2022-10-17T16:23:07.379Z,6.60
2022-10-17T16:25:34.390Z,6.32
2022-10-17T16:28:01.981Z,6.20
2022-10-17T16:30:30.605Z,7.85
2022-10-17T16:33:02.435Z,9.50
2022-10-17T16:35:53.392Z,11.25
2022-10-17T16:38:19.820Z,22.52
2022-10-17T16:40:46.133Z,17.88
2022-10-17T16:43:13.764Z,14.07
2022-10-17T16:45:47.607Z,9.43
2022-10-17T16:48:14.706Z,13.13
2022-10-17T16:50:46.510Z,9.85
2022-10-17T16:53:12.925Z,8.63
2022-10-17T16:55:39.782Z,7.90
2022-10-17T16:58:06.429Z,8.25
2022-10-17T17:00:33.051Z,11.25
2022-10-17T17:02:59.733Z,7.68
2022-10-17T17:05:26.187Z,7.93
2022-10-17T17:07:52.873Z,12.68
2022-10-17T17:10:22.096Z,11.15
2022-10-17T17:12:48.770Z,9.88
2022-10-17T17:15:15.277Z,8.10
2022-10-17T17:17:50.482Z,12.60
2022-10-17T17:20:19.897Z,8.63
2022-10-17T17:22:46.400Z,8.15
2022-10-17T17:25:12.947Z,10.85
2022-10-17T17:27:39.337Z,7.10
2022-10-17T17:30:06.256Z,8.85
2022-10-17T17:32:38.099Z,11.98
2022-10-17T17:35:07.073Z,8.00
2022-10-17T17:37:33.636Z,6.97
2022-10-17T17:40:03.006Z,7.03
2022-10-17T17:42:29.384Z,7.07
2022-10-17T17:44:58.507Z,6.78
2022-10-17T17:47:45.458Z,9.50
2022-10-17T17:50:11.945Z,8.50
2022-10-17T17:52:41.862Z,8.00
2022-10-17T17:55:09.055Z,9.85
2022-10-17T17:57:40.208Z,7.78
2022-10-17T18:00:07.539Z,7.90
2022-10-17T18:02:37.687Z,6.53
2022-10-17T18:05:06.881Z,6.82
2022-10-17T18:07:37.397Z,7.57
2022-10-17T18:10:05.423Z,6.65
2022-10-17T18:12:32.960Z,6.70
2022-10-17T18:14:59.457Z,7.97
2022-10-17T18:17:26.041Z,7.53
2022-10-17T18:19:52.783Z,7.45
2022-10-17T18:22:19.258Z,10.30
2022-10-17T18:24:45.676Z,7.60
2022-10-17T18:27:15.798Z,7.68
2022-10-17T18:29:45.658Z,7.38
2022-10-17T18:32:15.145Z,7.05
2022-10-17T18:34:44.726Z,9.80
2022-10-17T18:37:13.701Z,6.82
2022-10-17T18:39:40.589Z,6.88
2022-10-17T18:42:07.133Z,7.47
2022-10-17T18:44:33.510Z,6.10
2022-10-17T18:47:03.767Z,6.60
2022-10-17T18:49:31.228Z,6.05
2022-10-17T18:51:57.893Z,6.60
2022-10-17T18:54:24.321Z,6.00
2022-10-17T18:56:55.172Z,6.28
2022-10-17T18:59:22.405Z,12.95
2022-10-17T19:01:52.255Z,31.42
2022-10-17T19:04:19.072Z,31.85
2022-10-17T19:06:45.453Z,19.50
2022-10-17T19:09:16.197Z,11.77
2022-10-17T19:11:45.781Z,6.20
2022-10-17T19:14:15.764Z,7.90
2022-10-17T19:16:45.426Z,6.78
2022-10-17T19:19:23.361Z,6.43
2022-10-17T19:21:51.013Z,6.40
2022-10-17T19:24:20.500Z,6.60
2022-10-17T19:26:51.014Z,6.10
2022-10-17T19:29:18.134Z,6.43
2022-10-17T19:31:45.542Z,6.10
2022-10-17T19:34:13.974Z,6.03
2022-10-17T19:36:41.247Z,5.60
2022-10-17T19:39:18.711Z,6.80
2022-10-17T19:41:57.605Z,17.23
2022-10-17T19:44:24.066Z,5.70
2022-10-17T19:46:50.675Z,5.60
2022-10-17T19:49:17.398Z,8.10
2022-10-17T19:51:44.432Z,6.35
2022-10-17T19:54:11.305Z,5.60
2022-10-17T19:56:38.163Z,6.30
2022-10-17T19:59:08.554Z,6.80
2022-10-17T20:01:41.560Z,6.03
2022-10-17T20:04:10.657Z,6.60
2022-10-17T20:06:37.593Z,6.63
2022-10-17T20:09:05.218Z,6.25
2022-10-17T20:11:35.265Z,6.20
2022-10-17T20:14:02.155Z,7.63
2022-10-17T20:16:32.785Z,5.85
2022-10-17T20:19:09.442Z,5.45
2022-10-17T20:21:39.241Z,6.05
2022-10-17T20:24:11.996Z,6.45
2022-10-17T20:26:43.976Z,5.90
2022-10-17T20:29:20.028Z,5.47
2022-10-17T20:31:47.895Z,5.45
2022-10-17T20:34:18.434Z,5.53
2022-10-17T20:36:45.595Z,9.23
2022-10-17T20:39:13.798Z,5.75
2022-10-17T20:41:40.736Z,5.40
2022-10-17T20:44:07.749Z,5.43
2022-10-17T20:46:39.823Z,5.28
2022-10-17T20:49:15.003Z,5.72
2022-10-17T20:51:44.856Z,5.50
2022-10-17T20:54:21.922Z,6.22
2022-10-17T20:56:50.285Z,5.70
2022-10-17T20:59:18.099Z,5.65
2022-10-17T21:01:45.502Z,5.90
2022-10-17T21:04:45.428Z,5.80
2022-10-17T21:06:59.389Z,5.35
2022-10-17T21:09:26.031Z,5.97
2022-10-17T21:11:55.097Z,5.50
2022-10-17T21:14:23.022Z,5.78
2022-10-17T21:16:49.444Z,5.90
2022-10-17T21:19:16.488Z,5.63
2022-10-17T21:21:45.693Z,5.80
2022-10-17T21:24:18.199Z,5.97
2022-10-17T21:26:46.217Z,6.30
2022-10-17T21:29:13.737Z,5.70
2022-10-17T21:31:43.380Z,5.80
2022-10-17T21:34:12.791Z,6.13
2022-10-17T21:36:39.186Z,5.78
2022-10-17T21:41:35.609Z,5.65
2022-10-17T21:44:07.754Z,6.00
2022-10-17T21:46:34.195Z,5.90
2022-10-17T21:49:00.816Z,5.82
2022-10-17T21:51:30.709Z,5.45
2022-10-17T21:53:57.685Z,6.15
2022-10-17T21:56:28.664Z,6.03
2022-10-17T21:58:58.369Z,5.70
2022-10-17T22:01:34.049Z,5.50
2022-10-17T22:04:06.753Z,5.53
2022-10-17T22:09:12.224Z,5.70
2022-10-17T22:11:39.244Z,5.45
2022-10-17T22:14:15.172Z,5.53
2022-10-17T22:16:47.324Z,5.93
2022-10-17T22:19:19.438Z,5.63
2022-10-17T22:21:46.368Z,5.70
2022-10-17T22:24:16.195Z,5.72
2022-10-17T22:26:45.350Z,6.00
2022-10-17T22:29:12.402Z,5.65
2022-10-17T22:31:41.896Z,6.47
2022-10-17T22:34:13.296Z,5.65
2022-10-17T22:36:39.730Z,6.00
2022-10-17T22:39:10.580Z,7.35
2022-10-17T22:41:36.914Z,6.22
2022-10-17T22:44:03.739Z,6.10
2022-10-17T22:46:30.446Z,5.47
2022-10-17T22:48:59.549Z,5.72
2022-10-17T22:51:26.060Z,5.85
2022-10-17T22:53:52.609Z,6.10
2022-10-17T22:56:20.901Z,5.82
2022-10-17T22:58:52.036Z,5.95
2022-10-17T23:01:28.914Z,6.47
2022-10-17T23:03:55.330Z,6.10
2022-10-17T23:06:24.429Z,6.60
2022-10-17T23:08:54.205Z,6.50
2022-10-17T23:11:26.822Z,6.35
2022-10-17T23:16:22.061Z,6.35
2022-10-17T23:37:50.744Z,6.53
2022-10-17T23:40:19.536Z,5.90
2022-10-17T23:42:45.897Z,5.95
2022-10-17T23:45:12.637Z,5.45
2022-10-17T23:47:39.371Z,5.70
2022-10-17T23:50:06.449Z,5.72
2022-10-17T23:52:32.781Z,6.00
2022-10-17T23:55:02.025Z,5.75
2022-10-17T23:57:29.188Z,6.70
2022-10-17T23:59:55.789Z,6.38
